x

East Scotia Slope (44137) Weather Station

11:00pm - Mon 26th Jan 2015 All times are EST. -5 hours from GMT.

  • Wind
    34mph
  • Air Temp 47°f
  • Sea Pressure 1014.9mb
  • East Scotia Slope
  • East Scotia Slope

More Historic Weather Station data

Upgrade to MSW Pro to gain access to the past 30 days of data for over 8000 Wavebouys and Weather Stations around the globe.

Join Pro

Comparision Forecast

View Surf forecast
   
Mon 01/26 11:00pm  -   -  34
mph
1014.9mb - 47f
10:00pm 8ft 11s 31 38 mph 1016.2mb 55f 46f
9:00pm 7.5ft 10s 27 34 mph 1018.8mb 55f 44f
8:00pm 8ft 10s 25
mph
1020.2mb 55f 42f
7:00pm 7.5ft 10s 20 27 mph 1021.3mb 55f 40f
6:00pm 7.5ft 10s 18 29 mph 1021.8mb 55f 39f
5:00pm 9ft 9s 13 20 mph 1021.9mb 55f 36f
4:00pm 9.5ft 10s 13 20 mph 1021.9mb 55f 35f
3:00pm 9ft 11s 13 20 mph 1021.3mb 55f 33f
2:00pm 10.5ft 10s 11 16 mph 1021.2mb 55f 32f
1:00pm 11ft 11s 9 16 mph 1021.3mb 54f 32f
12:00pm 12ft 9s 11 16 mph 1021.5mb 54f 32f
11:00am 13ft 11s 11 18 mph 1021.2mb 53f 32f
10:00am 13ft 12s 13 18 mph 1021.4mb 53f 32f
9:00am 13ft 10s 13 18 mph 1020.7mb 52f 33f
8:00am 13ft 11s 13 22 mph 1019.8mb 50f 33f
7:00am 15ft 11s 16 22 mph 1018.6mb 49f 33f
6:00am 13ft 10s 20 27 mph 1017.3mb 49f 34f
5:00am 15ft 11s 22 29 mph 1015.8mb 48f 35f
4:00am 15ft 10s 25 31 mph 1014.3mb 49f 36f
3:00am 15.5ft 12s 25 29 mph 1013mb 50f 37f
2:00am 14ft 11s 25 31 mph 1011.9mb 51f 38f
1:00am 16.5ft 12s 29 36 mph 1010.8mb 53f 40f
12:00am 17.5ft 12s 31
mph
1009.2mb 54f 41f
Sun 01/25 11:00pm 16.5ft 12s 31 38 mph 1007.9mb 54f 42f
10:00pm 18ft 12s 31 40 mph 1006.5mb 54f 43f
9:00pm 17.5ft 12s 29 34 mph 1005.4mb 54f 43f
8:00pm 18.5ft 14s 31 40 mph 1004.2mb 54f 45f
7:00pm 18ft 13s 31 40 mph 1003.6mb 53f 44f
6:00pm 18.5ft 13s 29 36 mph 1002.2mb 53f 45f
5:00pm 19.5ft 13s 29 36 mph 1000.9mb 53f 46f
4:00pm 19ft 11s 27 34 mph 999.7mb 53f 47f
3:00pm 20ft 14s 27 36 mph 998.8mb 52f 48f
2:00pm 21ft 14s 22 29 mph 998.4mb 50f 46f
1:00pm 23ft 14s 25 31 mph 998mb 49f 46f
12:00pm 21ft 14s 25 31 mph 997.8mb 49f 46f
11:00am 25ft 15s 25 31 mph 997.7mb 50f 45f
10:00am 27ft 14s 25 31 mph 997.7mb 50f 46f
9:00am 25.5ft 15s 29 36 mph 997mb 53f 46f
8:00am 27ft 14s 34 40 mph 995.5mb 54f 47f
7:00am 24.5ft 15s 36 47 mph 993.9mb 55f 47f
6:00am  -   -  38
mph
991.4mb 55f 46f
5:00am 29ft 15s 43 54 mph 988.4mb 56f 48f
4:00am 27ft 13s 43 58 mph 985.2mb 56f 49f
3:00am 27ft 14s 47 60 mph 981.2mb 56f 53f
2:00am 25.5ft 14s 40 54 mph 978.1mb 56f 61f
1:00am 25.5ft 12s 40 54 mph 978.4mb 56f 61f
12:00am 24.5ft 12s 38 47 mph 979.4mb 56f 61f
Sat 01/24 11:00pm 22.5ft 10s 47 63 mph 981.1mb 56f 60f
10:00pm 18.5ft 10s 45 58 mph 983.3mb 56f 60f
9:00pm 15.5ft 10s 43 56 mph 986.6mb 56f 59f
8:00pm 13.5ft 8s 40 49 mph 989.9mb 54f 58f
7:00pm 12.5ft 8s 36 45 mph 992.9mb 53f 58f
6:00pm 10ft 7s 36 45 mph 995.5mb 51f 56f
5:00pm 8.5ft 6s 36 47 mph 998.2mb 49f 54f
4:00pm 6.5ft 7s 31 38 mph 1001.1mb 50f 53f
3:00pm 5.5ft 8s 27 34 mph 1003.5mb 51f 54f
2:00pm 5ft 7s 22 29 mph 1005.9mb 51f 53f
1:00pm 5ft 7s 20 25 mph 1007.8mb 51f 49f
12:00pm 5.5ft 6s 16 20 mph 1009.6mb 49f 49f
11:00am 5.5ft 8s 13 16 mph 1011.4mb 49f 48f
10:00am 6ft 7s 9 13 mph 1013.1mb 49f 47f
9:00am 6ft 7s 11 13 mph 1013.7mb 49f 47f
8:00am 6ft 7s 11 13 mph 1013.4mb 49f 46f
7:00am 6ft 6s 16 20 mph 1014.1mb 50f 46f
6:00am 5.5ft 7s 20 27 mph 1014.1mb 49f 46f
5:00am 5.5ft 7s 9 13 mph 1015mb 49f 43f
4:00am 5.5ft 7s 11 16 mph 1015.3mb 50f 42f
3:00am 6ft 7s 13 18 mph 1015.6mb 49f 41f
2:00am 6ft 7s 16 18 mph 1016mb 50f 42f
1:00am 6ft 7s 16 20 mph 1016.1mb 50f 41f
12:00am 7ft 7s 16 20 mph 1016.9mb 51f 39f
Fri 01/23 11:00pm 7ft 8s 16 22 mph 1017.2mb 51f 38f
10:00pm 7.5ft 8s 18 22 mph 1017.4mb 52f 38f
9:00pm 8ft 7s 18 25 mph 1017.6mb 52f 38f
8:00pm 8ft 7s 18 25 mph 1017.7mb 53f 36f
7:00pm 9ft 7s 18 27 mph 1017.6mb 53f 35f
6:00pm 10.5ft 7s 20 25 mph 1017.6mb 53f 34f
5:00pm 10ft 8s 22 31 mph 1017.6mb 54f 35f
4:00pm 10ft 8s 29 36 mph 1016.8mb 54f 36f
3:00pm 10.5ft 8s 27 34 mph 1016.5mb 54f 38f
2:00pm 10ft 7s 25 31 mph 1016.4mb 54f 39f
1:00pm 11ft 10s 22 29 mph 1016.7mb 54f 37f
12:00pm 10.5ft 7s 27 36 mph 1017.3mb 55f 35f
11:00am 11ft 9s 27 36 mph 1017.8mb 55f 35f
10:00am 11ft 10s 22 29 mph 1017.6mb 55f 36f
9:00am 11.5ft 10s 22 27 mph 1017.2mb 55f 35f
8:00am 13ft 9s 22 29 mph 1017mb 55f 35f
7:00am 14.5ft 10s 22 31 mph 1016.5mb 55f 35f